Time;durP1;ratioP1;P1;durP2;ratioP2;P2;SDS_P1;SDS_P2;PMS_P1;PMS_P2;Temp;Humidity;BMP_temperature;BMP_pressure;BME280_temperature;BME280_humidity;BME280_pressure;Samples;Min_cycle;Max_cycle;Signal;HPM_P1;HPM_P2
2023/09/22 00:02:24;;;;;;;6.25;5.75;;;15.90;99.90;;;;;;5068509;27;20021;-43
2023/09/22 00:04:50;;;;;;;5.90;5.40;;;15.90;99.90;;;;;;5119747;27;20063;-42
2023/09/22 00:07:15;;;;;;;8.77;7.95;;;15.90;99.90;;;;;;5077675;27;20050;-43
2023/09/22 00:09:41;;;;;;;7.53;6.82;;;15.90;99.90;;;;;;5100013;27;20014;-42
2023/09/22 00:12:08;;;;;;;6.90;6.03;;;15.90;99.90;;;;;;5168430;27;20014;-43
2023/09/22 00:14:35;;;;;;;7.65;6.70;;;15.90;99.90;;;;;;5104928;27;20064;-43
2023/09/22 00:17:01;;;;;;;7.95;7.18;;;15.90;99.90;;;;;;5170446;27;20022;-42
2023/09/22 00:19:27;;;;;;;6.68;6.07;;;15.90;99.90;;;;;;5114361;27;20081;-42
2023/09/22 00:21:55;;;;;;;6.50;5.90;;;15.90;99.90;;;;;;5162453;27;20722;-41
2023/09/22 00:24:22;;;;;;;8.35;7.55;;;15.90;99.90;;;;;;5124413;27;20032;-41
2023/09/22 00:26:47;;;;;;;7.60;6.90;;;15.80;99.90;;;;;;5150277;27;20196;-42
2023/09/22 00:29:13;;;;;;;8.10;7.30;;;15.80;99.90;;;;;;5139201;27;20535;-42
2023/09/22 00:31:38;;;;;;;8.60;7.70;;;15.80;99.90;;;;;;5134928;27;20062;-42
2023/09/22 00:34:04;;;;;;;9.50;8.50;;;15.80;99.90;;;;;;5153124;27;20033;-41
2023/09/22 00:36:30;;;;;;;9.60;7.32;;;15.80;99.90;;;;;;5121985;27;20077;-42
2023/09/22 00:38:55;;;;;;;7.70;7.00;;;15.80;99.90;;;;;;5162415;27;20033;-42
2023/09/22 00:41:24;;;;;;;9.55;8.55;;;15.80;99.90;;;;;;5111027;27;20062;-41
2023/09/22 00:43:49;;;;;;;9.52;8.55;;;15.80;99.90;;;;;;5162950;27;20038;-41
2023/09/22 00:46:19;;;;;;;11.10;9.50;;;15.80;99.90;;;;;;5109851;27;20022;-42
2023/09/22 00:48:51;;;;;;;11.00;9.77;;;15.80;99.90;;;;;;5170200;27;20026;-42
2023/09/22 00:51:19;;;;;;;9.57;8.57;;;15.80;99.90;;;;;;5108028;27;20071;-41
2023/09/22 00:53:47;;;;;;;9.88;8.88;;;15.90;99.90;;;;;;5170290;27;20026;-43
2023/09/22 00:56:15;;;;;;;10.85;9.38;;;15.90;99.90;;;;;;5102774;27;20023;-42
2023/09/22 00:58:41;;;;;;;10.05;9.00;;;15.90;99.90;;;;;;5169688;27;20108;-42
2023/09/22 01:01:10;;;;;;;10.65;9.57;;;15.80;99.90;;;;;;5102172;27;20021;-42
2023/09/22 01:03:35;;;;;;;10.57;9.48;;;15.80;99.90;;;;;;5169939;27;20037;-43
2023/09/22 01:06:05;;;;;;;11.23;9.70;;;15.80;99.90;;;;;;5111916;27;20016;-42
2023/09/22 01:08:31;;;;;;;11.38;10.18;;;15.80;99.90;;;;;;5096429;27;20040;-42
2023/09/22 01:10:57;;;;;;;12.27;10.98;;;15.80;99.90;;;;;;5110672;27;20426;-42
2023/09/22 01:13:23;;;;;;;13.10;11.63;;;15.70;99.90;;;;;;5083087;27;20033;-42
2023/09/22 01:15:48;;;;;;;12.88;11.48;;;15.70;99.90;;;;;;5097387;27;20766;-42
2023/09/22 01:18:14;;;;;;;13.40;11.77;;;15.70;99.90;;;;;;5097058;27;20483;-42
2023/09/22 01:20:42;;;;;;;14.70;12.95;;;15.70;99.90;;;;;;5082069;27;20708;-42
2023/09/22 01:23:08;;;;;;;14.02;12.45;;;15.70;99.90;;;;;;5108504;27;20417;-43
2023/09/22 01:25:37;;;;;;;12.50;10.65;;;15.60;99.90;;;;;;5071167;27;20016;-43
2023/09/22 01:28:10;;;;;;;15.45;13.48;;;15.60;99.90;;;;;;5120144;27;20025;-44
2023/09/22 01:30:36;;;;;;;12.18;10.90;;;15.60;99.90;;;;;;5070861;27;20065;-44
2023/09/22 01:33:04;;;;;;;14.40;11.93;;;15.50;99.90;;;;;;5122305;27;20020;-43
2023/09/22 01:35:33;;;;;;;13.75;11.18;;;15.50;99.90;;;;;;5070486;27;20052;-43
2023/09/22 01:38:19;;;;;;;14.80;12.18;;;15.50;99.90;;;;;;5122936;27;20025;-44
2023/09/22 01:40:45;;;;;;;12.50;10.27;;;15.40;99.90;;;;;;5071020;27;20024;-43
2023/09/22 01:43:11;;;;;;;12.55;10.27;;;15.40;99.90;;;;;;5121521;27;20035;-44
2023/09/22 01:45:39;;;;;;;12.38;9.70;;;15.40;99.90;;;;;;5064245;27;20061;-43
2023/09/22 01:48:07;;;;;;;11.50;10.27;;;15.40;99.90;;;;;;5128857;27;20039;-41
2023/09/22 01:50:37;;;;;;;13.88;11.10;;;15.40;99.90;;;;;;5063967;27;20028;-41
2023/09/22 01:53:04;;;;;;;14.02;12.10;;;15.40;99.90;;;;;;5129947;27;20021;-43
2023/09/22 01:55:30;;;;;;;12.88;11.05;;;15.40;99.90;;;;;;5063101;27;20020;-42
2023/09/22 01:57:56;;;;;;;12.77;10.50;;;15.30;99.90;;;;;;5128201;27;20091;-42
2023/09/22 02:00:27;;;;;;;12.07;10.57;;;15.20;99.90;;;;;;5064443;27;20365;-42
2023/09/22 02:02:53;;;;;;;12.47;10.03;;;15.20;99.90;;;;;;5117834;27;20041;-42
2023/09/22 02:05:19;;;;;;;13.50;10.95;;;15.20;99.90;;;;;;5073637;27;20343;-43
2023/09/22 02:07:44;;;;;;;10.43;9.32;;;15.20;99.90;;;;;;5075290;27;20028;-42
2023/09/22 02:10:16;;;;;;;10.32;8.88;;;15.10;99.90;;;;;;5061984;28;20029;-43
2023/09/22 02:12:44;;;;;;;10.20;8.63;;;15.10;99.90;;;;;;5100789;27;20102;-42
2023/09/22 02:15:10;;;;;;;10.07;8.10;;;15.00;99.90;;;;;;5135329;27;20500;-43
2023/09/22 02:17:41;;;;;;;8.68;7.78;;;15.00;99.90;;;;;;5148588;27;20022;-43
2023/09/22 02:20:17;;;;;;;9.65;8.48;;;14.90;99.90;;;;;;5126471;27;20083;-42
2023/09/22 02:22:47;;;;;;;8.57;7.68;;;14.80;99.90;;;;;;5150565;27;20038;-42
2023/09/22 02:25:13;;;;;;;8.20;7.32;;;14.80;99.90;;;;;;5122220;27;20023;-41
2023/09/22 02:27:39;;;;;;;7.65;6.88;;;14.70;99.90;;;;;;5160914;27;20026;-42
2023/09/22 02:30:05;;;;;;;8.52;7.43;;;14.60;99.90;;;;;;5097941;27;20049;-43
2023/09/22 02:32:31;;;;;;;8.10;7.30;;;14.60;99.90;;;;;;5159669;27;20050;-42
2023/09/22 02:34:57;;;;;;;8.43;6.93;;;14.60;99.90;;;;;;5108222;27;20034;-43
2023/09/22 02:37:23;;;;;;;10.13;6.70;;;14.60;99.90;;;;;;5166811;27;20029;-43
2023/09/22 02:39:49;;;;;;;7.72;6.28;;;14.60;99.90;;;;;;5101223;27;20014;-43
2023/09/22 02:42:14;;;;;;;6.97;6.25;;;14.60;99.90;;;;;;5167624;27;20041;-42
2023/09/22 02:44:43;;;;;;;7.45;6.10;;;14.60;99.90;;;;;;5100791;27;20065;-41
2023/09/22 02:47:09;;;;;;;6.00;5.40;;;14.50;99.90;;;;;;5167901;27;20061;-41
2023/09/22 02:49:34;;;;;;;6.95;5.85;;;14.50;99.90;;;;;;5106808;27;20047;-42
2023/09/22 02:52:00;;;;;;;6.55;5.63;;;14.50;99.90;;;;;;5162986;27;20097;-43
2023/09/22 02:54:26;;;;;;;6.25;5.65;;;14.60;99.90;;;;;;5120496;27;20067;-42
2023/09/22 02:56:53;;;;;;;6.57;5.72;;;14.60;99.90;;;;;;5150483;27;20639;-43
2023/09/22 02:59:19;;;;;;;5.95;5.32;;;14.60;99.90;;;;;;5131850;27;20636;-42
2023/09/22 03:01:44;;;;;;;6.57;5.60;;;14.60;99.90;;;;;;5137526;27;20153;-42
2023/09/22 03:04:19;;;;;;;6.35;5.70;;;14.50;99.90;;;;;;5146599;27;20130;-42
2023/09/22 03:06:45;;;;;;;6.35;5.68;;;14.50;99.90;;;;;;5129154;27;20040;-42
2023/09/22 03:09:10;;;;;;;6.43;5.63;;;14.50;99.90;;;;;;5092813;27;20416;-43
2023/09/22 03:11:36;;;;;;;5.82;5.18;;;14.60;99.90;;;;;;5114544;27;20017;-43
2023/09/22 03:14:03;;;;;;;6.20;5.25;;;14.60;99.90;;;;;;5068520;27;20105;-40
2023/09/22 03:16:29;;;;;;;5.72;4.85;;;14.60;99.90;;;;;;5121553;27;20024;-43
2023/09/22 03:19:04;;;;;;;5.22;4.70;;;14.60;99.90;;;;;;5068874;27;20097;-43
2023/09/22 03:21:33;;;;;;;5.60;4.85;;;14.60;99.90;;;;;;5103575;27;20026;-42
2023/09/22 03:23:59;;;;;;;5.85;4.65;;;14.60;99.90;;;;;;5165017;27;20038;-43
2023/09/22 03:26:24;;;;;;;5.40;4.50;;;14.60;99.90;;;;;;5103249;27;20026;-42
2023/09/22 03:28:50;;;;;;;6.28;4.85;;;14.50;99.90;;;;;;5167653;27;20018;-43
2023/09/22 03:31:19;;;;;;;5.57;4.80;;;14.50;99.90;;;;;;5100896;27;20147;-42
2023/09/22 03:33:46;;;;;;;6.43;4.53;;;14.50;99.90;;;;;;5167444;27;20699;-42
2023/09/22 03:36:12;;;;;;;6.50;4.60;;;14.50;99.90;;;;;;5102100;27;20024;-42
2023/09/22 03:38:42;;;;;;;5.60;4.97;;;14.60;99.90;;;;;;5166586;27;20106;-43
2023/09/22 03:41:08;;;;;;;7.85;5.28;;;14.60;99.90;;;;;;5112475;27;20032;-42
2023/09/22 03:43:34;;;;;;;5.15;4.60;;;14.60;99.90;;;;;;5155285;27;20443;-42
2023/09/22 03:46:01;;;;;;;7.05;4.43;;;14.60;99.90;;;;;;5126281;27;20020;-43
2023/09/22 03:48:27;;;;;;;5.13;4.57;;;14.60;99.90;;;;;;5142118;27;20022;-42
2023/09/22 03:50:56;;;;;;;5.53;4.32;;;14.60;99.90;;;;;;5140010;27;20016;-43
2023/09/22 03:53:24;;;;;;;6.03;5.15;;;14.60;99.90;;;;;;5131627;27;20019;-43
2023/09/22 03:55:50;;;;;;;5.38;4.45;;;14.60;99.90;;;;;;5149201;27;20037;-43
2023/09/22 03:58:17;;;;;;;5.70;4.57;;;14.60;99.90;;;;;;5119265;27;20366;-43
2023/09/22 04:00:43;;;;;;;5.15;4.25;;;14.60;99.90;;;;;;5160363;27;20014;-42
2023/09/22 04:03:09;;;;;;;4.95;4.45;;;14.60;99.90;;;;;;5107243;27;20042;-42
2023/09/22 04:05:36;;;;;;;5.95;4.97;;;14.60;99.90;;;;;;5159833;27;20026;-41
2023/09/22 04:08:05;;;;;;;7.00;5.28;;;14.60;99.90;;;;;;5109792;27;20058;-42
2023/09/22 04:10:31;;;;;;;6.28;4.78;;;14.60;99.90;;;;;;5165754;27;20014;-42
2023/09/22 04:12:56;;;;;;;6.88;5.13;;;14.60;99.90;;;;;;5102020;27;20018;-42
2023/09/22 04:15:23;;;;;;;7.15;5.10;;;14.60;99.90;;;;;;5166869;27;20037;-43
2023/09/22 04:17:48;;;;;;;7.68;4.80;;;14.60;99.90;;;;;;5100031;27;20032;-41
2023/09/22 04:20:17;;;;;;;6.20;4.82;;;14.60;99.90;;;;;;5166656;27;20047;-42
2023/09/22 04:22:43;;;;;;;7.47;5.07;;;14.60;99.90;;;;;;5104450;27;20029;-42
2023/09/22 04:25:18;;;;;;;5.80;4.93;;;14.60;99.90;;;;;;5163363;27;20069;-42
2023/09/22 04:27:46;;;;;;;6.60;5.65;;;14.70;99.90;;;;;;5111410;27;20468;-41
2023/09/22 04:30:16;;;;;;;7.90;6.10;;;14.70;99.90;;;;;;5157668;27;20526;-42
2023/09/22 04:32:45;;;;;;;6.60;5.22;;;14.60;99.90;;;;;;5110578;27;20057;-42
2023/09/22 04:35:11;;;;;;;5.38;4.05;;;14.70;99.90;;;;;;5146360;27;20443;-43
2023/09/22 04:37:37;;;;;;;5.07;4.55;;;14.70;99.90;;;;;;5131082;27;20092;-43
2023/09/22 04:40:23;;;;;;;5.43;4.90;;;14.70;99.90;;;;;;5136254;27;20053;-43
2023/09/22 04:42:49;;;;;;;6.38;4.70;;;14.80;99.90;;;;;;5130513;27;20024;-42
2023/09/22 04:45:17;;;;;;;4.28;3.78;;;14.70;99.90;;;;;;5137308;27;20034;-41
2023/09/22 04:47:55;;;;;;;6.72;4.90;;;14.70;99.90;;;;;;5141799;27;20120;-42
2023/09/22 04:50:21;;;;;;;4.97;4.47;;;14.80;99.90;;;;;;5134348;27;20071;-42
2023/09/22 04:52:49;;;;;;;5.43;4.93;;;14.80;99.90;;;;;;5145884;27;20014;-43
2023/09/22 04:55:20;;;;;;;5.22;4.00;;;14.80;99.90;;;;;;5122872;27;20027;-42
2023/09/22 04:57:46;;;;;;;5.70;4.38;;;14.80;99.90;;;;;;5155089;27;20022;-42
2023/09/22 05:00:16;;;;;;;5.18;4.07;;;14.80;99.90;;;;;;5115668;27;20030;-42
2023/09/22 05:02:45;;;;;;;4.97;4.25;;;14.80;99.90;;;;;;5163616;27;20021;-43
2023/09/22 05:05:11;;;;;;;7.15;4.22;;;14.80;99.90;;;;;;5109887;27;20113;-43
2023/09/22 05:07:40;;;;;;;5.30;4.15;;;14.80;99.90;;;;;;5163973;27;20019;-43
2023/09/22 05:10:06;;;;;;;3.58;3.20;;;14.80;99.90;;;;;;5122998;27;20056;-42
2023/09/22 05:12:35;;;;;;;5.25;4.03;;;14.80;99.90;;;;;;5064568;27;20028;-42
2023/09/22 05:15:01;;;;;;;5.20;3.88;;;14.80;99.90;;;;;;5104364;27;20022;-42
2023/09/22 05:17:28;;;;;;;4.45;3.58;;;14.80;99.90;;;;;;5170536;27;20082;-42
2023/09/22 05:19:54;;;;;;;7.40;3.95;;;14.80;99.90;;;;;;5103641;27;20029;-42
2023/09/22 05:22:21;;;;;;;4.18;3.72;;;14.80;99.90;;;;;;5170568;27;20030;-42
2023/09/22 05:24:47;;;;;;;4.13;3.20;;;14.80;99.90;;;;;;5107690;27;20387;-42
2023/09/22 05:27:14;;;;;;;4.43;3.00;;;14.80;99.90;;;;;;5165936;27;20022;-42
2023/09/22 05:29:41;;;;;;;4.63;3.20;;;14.80;99.90;;;;;;5120265;27;20033;-42
2023/09/22 05:32:12;;;;;;;5.30;4.03;;;14.80;99.90;;;;;;5153375;27;20038;-42
2023/09/22 05:34:41;;;;;;;5.50;4.25;;;14.70;99.90;;;;;;5128473;27;20476;-42
2023/09/22 05:37:06;;;;;;;5.50;3.60;;;14.70;99.90;;;;;;5145496;27;20377;-42
2023/09/22 05:39:32;;;;;;;4.72;3.15;;;14.60;99.90;;;;;;5140086;27;20028;-42
2023/09/22 05:41:58;;;;;;;3.45;3.10;;;14.60;99.90;;;;;;5132370;27;20477;-43
2023/09/22 05:44:24;;;;;;;3.67;3.00;;;14.60;99.90;;;;;;5153751;27;20102;-42
2023/09/22 05:46:51;;;;;;;4.88;3.42;;;14.50;99.90;;;;;;5118626;27;20389;-43
2023/09/22 05:49:16;;;;;;;3.20;2.90;;;14.50;99.90;;;;;;5160673;27;20839;-43
2023/09/22 05:51:42;;;;;;;4.53;3.08;;;14.40;99.90;;;;;;5110412;27;20046;-43
2023/09/22 05:54:08;;;;;;;5.22;3.38;;;14.30;99.90;;;;;;5161739;27;20020;-43
2023/09/22 05:56:35;;;;;;;4.32;3.50;;;14.30;99.90;;;;;;5110361;27;20042;-42
2023/09/22 05:59:01;;;;;;;2.90;2.60;;;14.30;99.90;;;;;;5169462;27;20036;-42
2023/09/22 06:01:27;;;;;;;3.88;3.00;;;14.30;99.90;;;;;;5101789;27;20366;-42
2023/09/22 06:03:53;;;;;;;3.33;3.00;;;14.30;99.90;;;;;;5169236;27;20048;-42
2023/09/22 06:06:22;;;;;;;2.83;2.50;;;14.30;99.90;;;;;;5101448;27;20874;-42
2023/09/22 06:08:47;;;;;;;5.95;3.17;;;14.20;99.90;;;;;;5106723;27;20697;-42
2023/09/22 06:11:14;;;;;;;4.95;3.15;;;14.20;99.90;;;;;;5119810;27;20079;-42
2023/09/22 06:13:40;;;;;;;3.95;3.00;;;14.30;99.90;;;;;;5071425;27;20021;-43
2023/09/22 06:16:06;;;;;;;4.05;2.35;;;14.30;99.90;;;;;;5106330;27;20091;-43
2023/09/22 06:18:32;;;;;;;3.60;2.90;;;14.30;99.90;;;;;;5085096;27;20495;-41
2023/09/22 06:20:59;;;;;;;3.33;2.53;;;14.30;99.90;;;;;;5093701;27;20478;-42
2023/09/22 06:23:27;;;;;;;5.18;2.90;;;14.30;99.90;;;;;;5096450;27;20045;-43
2023/09/22 06:25:57;;;;;;;5.28;2.58;;;14.40;99.90;;;;;;5082060;27;20064;-43
2023/09/22 06:28:22;;;;;;;3.25;2.50;;;14.40;99.90;;;;;;5105737;27;20506;-43
2023/09/22 06:30:52;;;;;;;3.15;2.38;;;14.50;99.90;;;;;;5071430;27;20074;-42
2023/09/22 06:33:18;;;;;;;2.92;2.35;;;14.50;99.90;;;;;;5117189;27;20031;-43
2023/09/22 06:35:54;;;;;;;4.65;2.50;;;14.50;99.90;;;;;;5070593;27;20397;-43
2023/09/22 06:38:23;;;;;;;3.70;2.60;;;14.50;99.90;;;;;;5121415;27;20028;-43
2023/09/22 06:40:50;;;;;;;3.65;2.40;;;14.60;99.90;;;;;;5070321;27;20104;-43
2023/09/22 06:43:16;;;;;;;3.08;2.55;;;14.60;99.90;;;;;;5121263;27;20025;-42
2023/09/22 06:45:42;;;;;;;4.10;2.30;;;14.70;99.90;;;;;;5063023;27;20048;-42
2023/09/22 06:48:09;;;;;;;2.38;2.00;;;14.60;99.90;;;;;;5126997;27;20020;-43
2023/09/22 06:50:35;;;;;;;4.47;2.20;;;14.60;99.90;;;;;;5062923;27;20063;-43
2023/09/22 06:53:02;;;;;;;3.10;2.03;;;14.70;99.90;;;;;;5128518;27;20026;-43
2023/09/22 06:55:30;;;;;;;3.15;1.95;;;14.60;99.90;;;;;;5063248;27;20069;-42
2023/09/22 06:57:59;;;;;;;3.72;2.50;;;14.60;99.90;;;;;;5125396;27;20022;-42
2023/09/22 07:00:28;;;;;;;2.15;1.80;;;14.70;99.90;;;;;;5043436;28;20052;-42
2023/09/22 07:02:55;;;;;;;3.70;1.83;;;14.70;99.90;;;;;;5111525;27;20552;-42
2023/09/22 07:05:24;;;;;;;2.75;1.80;;;14.80;99.90;;;;;;5071596;27;20032;-43
2023/09/22 07:07:50;;;;;;;2.22;1.40;;;14.80;99.90;;;;;;5092027;27;20048;-43
2023/09/22 07:10:24;;;;;;;3.20;1.98;;;14.80;99.90;;;;;;5062337;28;20061;-42
2023/09/22 07:12:51;;;;;;;2.30;1.42;;;14.90;99.90;;;;;;5098744;27;20014;-43
2023/09/22 07:15:17;;;;;;;2.70;1.75;;;15.00;99.90;;;;;;5089928;27;20103;-44
2023/09/22 07:17:43;;;;;;;3.47;1.80;;;15.00;99.90;;;;;;5085677;27;20010;-43
2023/09/22 07:20:12;;;;;;;2.45;1.75;;;15.10;99.90;;;;;;5102810;27;20025;-43
2023/09/22 07:22:38;;;;;;;2.97;1.98;;;15.20;99.90;;;;;;5074262;27;20032;-43
2023/09/22 07:25:04;;;;;;;2.05;1.58;;;15.20;99.90;;;;;;5114349;27;20032;-43
2023/09/22 07:27:30;;;;;;;2.30;1.83;;;15.30;99.90;;;;;;5068843;27;20846;-43
2023/09/22 07:29:55;;;;;;;3.65;2.10;;;15.40;99.90;;;;;;5121661;27;20032;-43
2023/09/22 07:32:21;;;;;;;2.75;1.73;;;15.40;99.90;;;;;;5066148;27;20044;-42
2023/09/22 07:34:48;;;;;;;3.33;2.35;;;15.50;99.90;;;;;;5122027;27;20100;-43
2023/09/22 07:37:16;;;;;;;3.60;2.00;;;15.50;99.90;;;;;;5061138;28;20059;-43
2023/09/22 07:39:42;;;;;;;1.88;1.70;;;15.60;99.90;;;;;;5127441;27;20033;-43
2023/09/22 07:42:09;;;;;;;2.60;1.70;;;15.60;99.90;;;;;;5061216;28;20028;-41
2023/09/22 07:44:38;;;;;;;2.03;1.65;;;15.70;99.90;;;;;;5128228;27;20037;-43
2023/09/22 07:47:10;;;;;;;4.40;1.80;;;15.80;99.90;;;;;;5061328;27;20089;-43
2023/09/22 07:49:37;;;;;;;3.08;1.92;;;15.80;99.90;;;;;;5122862;27;20482;-42
2023/09/22 07:52:03;;;;;;;3.50;1.70;;;15.80;99.90;;;;;;5065793;27;20048;-42
2023/09/22 07:54:28;;;;;;;3.25;1.70;;;15.80;99.90;;;;;;5109239;27;20015;-43
2023/09/22 07:56:54;;;;;;;2.17;1.80;;;15.80;99.90;;;;;;5080554;27;20361;-43
2023/09/22 07:59:19;;;;;;;3.65;2.00;;;15.80;99.90;;;;;;5094714;27;20023;-44
2023/09/22 08:01:45;;;;;;;2.83;1.58;;;15.80;99.90;;;;;;5093890;27;20033;-42
2023/09/22 08:04:10;;;;;;;2.15;1.40;;;15.80;99.90;;;;;;5080475;27;20369;-43
2023/09/22 08:06:37;;;;;;;2.38;1.42;;;15.80;99.90;;;;;;5107254;27;20119;-42
2023/09/22 08:09:06;;;;;;;3.20;1.48;;;15.80;99.90;;;;;;5116965;27;20049;-44
2023/09/22 08:11:32;;;;;;;3.72;2.03;;;15.80;99.90;;;;;;5099482;27;20022;-42
2023/09/22 08:14:01;;;;;;;1.42;1.20;;;15.90;99.90;;;;;;5159117;27;20507;-42
2023/09/22 08:16:27;;;;;;;3.75;1.38;;;15.90;99.90;;;;;;5107237;27;20022;-42
2023/09/22 08:18:54;;;;;;;1.90;1.40;;;16.00;99.90;;;;;;5162762;27;20477;-42
2023/09/22 08:21:21;;;;;;;1.48;1.30;;;16.00;99.90;;;;;;5105454;27;20018;-43
2023/09/22 08:23:47;;;;;;;1.60;1.10;;;16.00;99.90;;;;;;5166745;27;20489;-42
2023/09/22 08:26:17;;;;;;;2.60;1.52;;;16.10;99.90;;;;;;5100438;27;20021;-42
2023/09/22 08:28:50;;;;;;;2.42;1.30;;;16.20;99.90;;;;;;5167241;27;20391;-43
2023/09/22 08:31:16;;;;;;;1.67;1.10;;;16.30;99.90;;;;;;5099372;27;20050;-42
2023/09/22 08:33:41;;;;;;;2.83;1.27;;;16.40;99.90;;;;;;5171036;27;20587;-42
2023/09/22 08:36:08;;;;;;;2.22;0.90;;;16.50;99.90;;;;;;5110175;27;20013;-43
2023/09/22 08:38:34;;;;;;;2.53;1.10;;;16.50;99.90;;;;;;5164461;27;20690;-43
2023/09/22 08:41:03;;;;;;;2.35;1.25;;;16.60;99.90;;;;;;5123673;27;20024;-42
2023/09/22 08:43:30;;;;;;;1.40;1.30;;;16.60;99.90;;;;;;5153550;27;20163;-42
2023/09/22 08:45:57;;;;;;;1.60;0.90;;;16.60;99.90;;;;;;5134240;27;20080;-43
2023/09/22 08:48:24;;;;;;;2.25;1.10;;;16.50;99.90;;;;;;5141326;27;20042;-42
2023/09/22 08:51:10;;;;;;;0.95;0.85;;;16.50;99.90;;;;;;5145893;27;20024;-42
2023/09/22 08:53:39;;;;;;;1.52;1.00;;;16.50;99.90;;;;;;5143165;27;20034;-42
2023/09/22 08:56:06;;;;;;;1.75;0.75;;;16.40;99.90;;;;;;5142173;27;20024;-42
2023/09/22 08:58:34;;;;;;;1.27;0.80;;;16.40;99.90;;;;;;5132988;27;20022;-42
2023/09/22 09:01:02;;;;;;;2.03;0.80;;;16.40;99.90;;;;;;5153888;27;20026;-42
2023/09/22 09:03:27;;;;;;;1.08;0.70;;;16.40;99.90;;;;;;5122063;27;20022;-42
2023/09/22 09:06:07;;;;;;;2.75;0.93;;;16.40;99.90;;;;;;5162257;27;20040;-42
2023/09/22 09:08:36;;;;;;;1.40;0.85;;;16.40;99.90;;;;;;5070557;27;20025;-42
2023/09/22 09:11:10;;;;;;;1.60;0.80;;;16.40;99.90;;;;;;5071059;27;20031;-42
2023/09/22 09:13:39;;;;;;;1.08;0.80;;;16.40;99.90;;;;;;5101967;27;20489;-42
2023/09/22 09:16:10;;;;;;;1.38;0.80;;;16.50;99.90;;;;;;5161218;27;20562;-42
2023/09/22 09:18:36;;;;;;;3.03;0.90;;;16.50;99.90;;;;;;5110509;27;20116;-42
2023/09/22 09:21:09;;;;;;;1.48;0.70;;;16.50;99.90;;;;;;5162057;27;20029;-42
2023/09/22 09:23:35;;;;;;;1.95;0.80;;;16.50;99.90;;;;;;5110656;27;20037;-41
2023/09/22 09:26:01;;;;;;;1.63;0.70;;;16.50;99.90;;;;;;5168595;27;20026;-42
2023/09/22 09:28:31;;;;;;;0.88;0.70;;;16.50;99.90;;;;;;5103606;27;20055;-42
2023/09/22 09:30:58;;;;;;;1.35;0.90;;;16.50;99.90;;;;;;5169773;27;20121;-43
2023/09/22 09:33:30;;;;;;;1.27;0.80;;;16.40;99.90;;;;;;5102474;27;20108;-42
2023/09/22 09:35:56;;;;;;;2.10;0.95;;;16.40;99.90;;;;;;5169939;27;20476;-42
2023/09/22 09:38:29;;;;;;;0.80;0.70;;;16.30;99.90;;;;;;5102412;27;20024;-42
2023/09/22 09:41:02;;;;;;;1.55;0.73;;;16.30;99.90;;;;;;5169266;27;20015;-42
2023/09/22 09:43:28;;;;;;;2.58;1.00;;;16.30;99.90;;;;;;5103674;27;20147;-42
2023/09/22 09:45:59;;;;;;;0.90;0.70;;;16.40;99.90;;;;;;5167404;27;20113;-42
2023/09/22 09:48:26;;;;;;;2.47;0.93;;;16.50;99.90;;;;;;5114693;27;20016;-42
2023/09/22 09:50:59;;;;;;;1.05;0.93;;;16.60;99.90;;;;;;5158449;27;20025;-43
2023/09/22 09:53:28;;;;;;;1.35;0.77;;;16.70;99.90;;;;;;5121780;27;20467;-43
2023/09/22 09:56:01;;;;;;;1.48;0.77;;;16.80;99.90;;;;;;5152535;27;20030;-43
2023/09/22 09:58:32;;;;;;;2.15;1.15;;;16.90;99.90;;;;;;5128744;27;20124;-42
2023/09/22 10:00:59;;;;;;;2.47;0.82;;;16.90;99.90;;;;;;5147879;27;20032;-43
2023/09/22 10:03:26;;;;;;;1.60;0.80;;;17.00;99.90;;;;;;5137498;27;20033;-44
2023/09/22 10:05:52;;;;;;;1.63;0.82;;;17.10;99.90;;;;;;5135539;27;20240;-43
2023/09/22 10:08:20;;;;;;;2.22;0.82;;;17.20;99.90;;;;;;5136926;27;20383;-42
2023/09/22 10:10:48;;;;;;;1.08;0.70;;;17.30;99.90;;;;;;5137002;27;20027;-43
2023/09/22 10:13:15;;;;;;;2.78;0.82;;;17.50;99.90;;;;;;5159332;27;20047;-41
2023/09/22 10:15:54;;;;;;;1.27;0.80;;;17.60;99.90;;;;;;5112730;27;20026;-42
2023/09/22 10:18:21;;;;;;;1.55;0.73;;;17.60;99.90;;;;;;5160568;27;20030;-41
2023/09/22 10:20:47;;;;;;;1.70;0.75;;;17.60;99.90;;;;;;5109812;27;20014;-42
2023/09/22 10:23:33;;;;;;;1.48;0.95;;;17.40;99.90;;;;;;5160735;27;20543;-42
2023/09/22 10:26:04;;;;;;;0.57;0.50;;;17.30;99.90;;;;;;5099689;27;20055;-42
2023/09/22 10:28:30;;;;;;;1.17;0.60;;;17.30;99.90;;;;;;5161001;27;20076;-42
2023/09/22 10:30:59;;;;;;;1.25;0.80;;;17.20;99.90;;;;;;5108472;27;20515;-42
2023/09/22 10:33:32;;;;;;;1.95;0.88;;;17.10;99.90;;;;;;5162392;27;20083;-41
2023/09/22 10:36:01;;;;;;;1.10;0.70;;;17.00;99.90;;;;;;5118536;27;20032;-42
2023/09/22 10:38:27;;;;;;;0.75;0.75;;;17.00;99.90;;;;;;5063670;27;20028;-43
2023/09/22 10:41:03;;;;;;;0.75;0.50;;;16.90;99.90;;;;;;5101688;27;20709;-43
2023/09/22 10:43:54;;;;;;;1.02;0.55;;;16.90;99.90;;;;;;5167826;27;20038;-44
2023/09/22 10:46:19;;;;;;;0.82;0.60;;;16.80;99.90;;;;;;5109723;27;20025;-44
2023/09/22 10:48:45;;;;;;;2.20;0.60;;;16.80;99.90;;;;;;5167967;27;20034;-44
2023/09/22 10:51:18;;;;;;;1.15;0.80;;;16.80;99.90;;;;;;5101364;27;20025;-43
2023/09/22 10:53:56;;;;;;;1.77;0.50;;;16.80;99.90;;;;;;5168069;27;20103;-44
2023/09/22 10:56:24;;;;;;;1.38;0.60;;;16.80;99.90;;;;;;5102270;27;20015;-43
2023/09/22 10:58:53;;;;;;;0.77;0.77;;;16.70;99.90;;;;;;5168196;27;20082;-43
2023/09/22 11:01:20;;;;;;;0.95;0.70;;;16.80;99.90;;;;;;5101019;27;20032;-43
2023/09/22 11:03:55;;;;;;;0.93;0.60;;;16.80;99.90;;;;;;5168360;27;20042;-43
2023/09/22 11:06:21;;;;;;;0.95;0.50;;;16.90;99.90;;;;;;5100895;27;20028;-43
2023/09/22 11:08:52;;;;;;;1.20;0.70;;;17.00;99.90;;;;;;5126706;27;20021;-42
2023/09/22 11:11:19;;;;;;;1.20;0.57;;;17.10;99.90;;;;;;5120762;27;20022;-41
2023/09/22 11:13:54;;;;;;;1.00;0.60;;;17.20;99.90;;;;;;5068347;27;20064;-41
2023/09/22 11:16:21;;;;;;;0.93;0.82;;;17.40;99.90;;;;;;5114770;27;20918;-42
2023/09/22 11:19:04;;;;;;;0.93;0.55;;;17.30;99.90;;;;;;5073514;27;20077;-43
2023/09/22 11:21:40;;;;;;;1.52;0.70;;;17.30;99.90;;;;;;5114827;27;20026;-42
2023/09/22 11:24:08;;;;;;;1.02;0.90;;;17.30;99.90;;;;;;5066206;27;20392;-43
2023/09/22 11:26:46;;;;;;;1.77;1.10;;;17.50;99.90;;;;;;5109352;27;20101;-43
2023/09/22 11:29:11;;;;;;;0.65;0.50;;;17.60;99.90;;;;;;5070941;27;20041;-43
2023/09/22 11:31:50;;;;;;;1.00;0.60;;;17.70;99.90;;;;;;5104300;27;20038;-42
2023/09/22 11:34:27;;;;;;;0.93;0.70;;;17.80;99.90;;;;;;5073806;27;20048;-44
2023/09/22 11:36:55;;;;;;;1.02;0.60;;;17.90;99.90;;;;;;5109425;27;20042;-44
2023/09/22 11:39:29;;;;;;;0.93;0.60;;;17.90;99.90;;;;;;5078787;27;20040;-43
2023/09/22 11:41:58;;;;;;;1.33;0.50;;;17.90;99.90;;;;;;5102379;27;20019;-42
2023/09/22 11:44:24;;;;;;;2.45;0.77;;;17.90;99.90;;;;;;5084467;27;20391;-42
2023/09/22 11:46:50;;;;;;;0.80;0.60;;;18.00;99.90;;;;;;5090593;27;20753;-42
2023/09/22 11:49:16;;;;;;;1.92;0.82;;;18.20;99.90;;;;;;5097763;27;20463;-42
2023/09/22 11:51:56;;;;;;;1.58;0.60;;;18.30;99.90;;;;;;5077561;27;20095;-44
2023/09/22 11:54:24;;;;;;;2.28;0.55;;;18.40;99.90;;;;;;5100396;27;20484;-42
2023/09/22 11:56:54;;;;;;;3.13;1.05;;;18.40;99.90;;;;;;5076269;27;20040;-43
2023/09/22 11:59:23;;;;;;;0.90;0.60;;;18.50;99.90;;;;;;5109815;27;20036;-43
2023/09/22 12:01:50;;;;;;;0.95;0.60;;;18.50;99.90;;;;;;5068698;27;20020;-43
2023/09/22 12:04:18;;;;;;;1.35;0.57;;;18.50;99.90;;;;;;5049829;28;20036;-43
2023/09/22 12:06:44;;;;;;;0.75;0.70;;;18.50;99.90;;;;;;5069640;27;20149;-42
2023/09/22 12:09:11;;;;;;;1.27;0.90;;;18.50;99.90;;;;;;5105110;27;20037;-43
2023/09/22 12:11:38;;;;;;;2.15;0.75;;;18.50;99.90;;;;;;5067272;27;20017;-43
2023/09/22 12:14:04;;;;;;;1.13;0.90;;;18.60;99.90;;;;;;5128331;27;20029;-43
2023/09/22 12:16:30;;;;;;;0.70;0.70;;;18.60;99.90;;;;;;5064812;27;20023;-42
2023/09/22 12:18:56;;;;;;;1.00;0.90;;;18.60;99.90;;;;;;5131740;27;20073;-43
2023/09/22 12:21:24;;;;;;;1.48;0.88;;;18.70;99.90;;;;;;5064476;28;20020;-43
2023/09/22 12:23:50;;;;;;;0.60;0.50;;;18.70;99.90;;;;;;5129389;27;20477;-43
2023/09/22 12:26:16;;;;;;;1.42;0.70;;;18.70;99.90;;;;;;5066655;27;20190;-43
2023/09/22 12:28:41;;;;;;;1.08;0.73;;;18.80;99.90;;;;;;5114909;27;20018;-43
2023/09/22 12:31:07;;;;;;;1.85;0.77;;;18.80;99.90;;;;;;5081047;27;20510;-43
2023/09/22 12:33:33;;;;;;;1.38;0.75;;;18.90;99.90;;;;;;5101021;27;20029;-42
2023/09/22 12:35:59;;;;;;;1.13;0.85;;;18.90;99.90;;;;;;5093823;27;20029;-43
2023/09/22 12:38:27;;;;;;;1.00;0.88;;;18.90;99.90;;;;;;5087519;27;20026;-42
2023/09/22 12:40:53;;;;;;;1.10;0.80;;;18.90;99.90;;;;;;5106130;27;20032;-43
2023/09/22 12:43:19;;;;;;;0.57;0.50;;;18.90;99.90;;;;;;5074335;27;20159;-43
2023/09/22 12:45:44;;;;;;;0.93;0.60;;;18.90;99.90;;;;;;5120221;27;20032;-43
2023/09/22 12:48:11;;;;;;;0.60;0.60;;;18.90;99.90;;;;;;5071172;27;20125;-42
2023/09/22 12:50:37;;;;;;;1.45;0.80;;;18.90;99.90;;;;;;5123536;27;20028;-42